Minneapolis/St.Paul Radar Regional Satellite Twin Cities Traffic Info Map
Radar Satellite Traffic Traffic Cams
KLVN - Lakeville, Minnesota, USA
Distance from station: ENE 4mi, 6km
Updated: Mon, 20-Nov-2017 9:50pm CST
Clear
Clear
 Wind from WSW
Wind: WSW 10 mph , 17 km/h, Gust: 16 mph , 26 km/h
Temperature: 39°F , 4°C
Wind Chill: 32°F , 0°C
Dew Point: 28°F , -2°C
Humidity: 65%
Barometer: 29.50 inHg , 999 hPa
Clouds: Clear
Visibility: 10 miles , 16 km
2017/11/21 03:50 KLVN 210350Z AUTO 24009G14KT 10SM CLR 04/M02 A2950 RMK AO2
KFCM - Eden Prairie, Minnesota, USA
Distance from station: NNW 17mi, 28km
Updated: Mon, 20-Nov-2017 9:53pm CST
Clear
Clear
 Wind from W
Wind: W 9 mph , 15 km/h
Temperature: 45°F , 7°C
Wind Chill: 40°F , 4°C
Dew Point: 27°F , -3°C
Humidity: 49%
Barometer: 29.49 inHg , 998.6 hPa
Clouds: Clear
Visibility: 10 miles , 16 km
2017/11/21 03:53 KFCM 210353Z AUTO 26008KT 10SM CLR 07/M03 A2949 RMK AO2 SLP994 T00671033
 
KSYN - Stanton, Minnesota, USA
Distance from station: SE 18mi, 28km
Updated: Mon, 20-Nov-2017 9:52pm CST
Clear
Clear
 Wind from W
Wind: W 9 mph , 15 km/h
Temperature: 43°F , 6°C
Wind Chill: 38°F , 3°C
Dew Point: 28°F , -2°C
Humidity: 57%
Barometer: 29.50 inHg , 999 hPa
Clouds: Clear
Visibility: 10 miles , 16 km
2017/11/21 03:52 KSYN 210352Z AUTO 26008KT 10SM CLR 06/M02 A2950 RMK AO2 T00561020
KFBL - Faribault, Minnesota, USA
Distance from station: S 19mi, 31km
Updated: Mon, 20-Nov-2017 9:54pm CST
Clear
Clear
 Wind from WSW
Wind: WSW 9 mph , 15 km/h
Temperature: 39°F , 4°C
Wind Chill: 33°F , 1°C
Dew Point: 28°F , -2°C
Humidity: 65%
Barometer: 29.54 inHg , 1000.3 hPa
Clouds: Clear
Visibility: 10 miles , 16 km
2017/11/21 03:54 KFBL 210354Z AUTO 25008KT 10SM CLR 04/M02 A2954 RMK AO2
 
KMSP - Minneapolis, Minnesota, USA
Distance from station: N 19mi, 31km
Updated: Mon, 20-Nov-2017 9:53pm CST
Mostly Cloudy
Mostly Cloudy
 Wind from W
Wind: W 10 mph , 17 km/h
Temperature: 43°F , 6°C
Wind Chill: 37°F , 3°C
Dew Point: 28°F , -2°C
Humidity: 57%
Barometer: 29.49 inHg , 998.6 hPa
Clouds: Mostly Cloudy
Visibility: 10 miles , 16 km
Cloud details: Mostly Cloudy 25000 ft
2017/11/21 03:53 KMSP 210353Z 27009KT 10SM BKN250 06/M02 A2949 RMK AO2 SLP993 T00611022